sensor_id;sensor_type;location;lat;lon;timestamp;temperature;humidity
296;DHT22;132;48.770;9.200;2023-02-18T00:01:24;12.50;1.00
296;DHT22;132;48.770;9.200;2023-02-18T00:03:51;12.30;1.00
296;DHT22;132;48.770;9.200;2023-02-18T00:06:28;12.40;1.00
296;DHT22;132;48.770;9.200;2023-02-18T00:08:55;12.20;1.00
296;DHT22;132;48.770;9.200;2023-02-18T00:11:24;12.20;1.00
296;DHT22;132;48.770;9.200;2023-02-18T00:13:51;12.20;1.00
296;DHT22;132;48.770;9.200;2023-02-18T00:16:18;12.40;1.00
296;DHT22;132;48.770;9.200;2023-02-18T00:18:45;12.30;1.00
296;DHT22;132;48.770;9.200;2023-02-18T00:21:11;12.30;1.00
296;DHT22;132;48.770;9.200;2023-02-18T00:23:38;12.20;1.00
296;DHT22;132;48.770;9.200;2023-02-18T00:26:15;12.50;1.00
296;DHT22;132;48.770;9.200;2023-02-18T00:28:42;12.20;1.00
296;DHT22;132;48.770;9.200;2023-02-18T00:31:14;12.20;1.00
296;DHT22;132;48.770;9.200;2023-02-18T00:33:41;12.20;1.00
296;DHT22;132;48.770;9.200;2023-02-18T00:36:10;12.20;1.00
296;DHT22;132;48.770;9.200;2023-02-18T00:38:38;12.30;1.00
296;DHT22;132;48.770;9.200;2023-02-18T00:41:05;12.60;1.00
296;DHT22;132;48.770;9.200;2023-02-18T00:43:33;12.30;1.00
296;DHT22;132;48.770;9.200;2023-02-18T00:45:59;12.20;1.00
296;DHT22;132;48.770;9.200;2023-02-18T00:48:27;12.10;1.00
296;DHT22;132;48.770;9.200;2023-02-18T00:50:53;12.20;1.00
296;DHT22;132;48.770;9.200;2023-02-18T00:53:22;12.20;1.00
296;DHT22;132;48.770;9.200;2023-02-18T00:55:49;12.30;1.00
296;DHT22;132;48.770;9.200;2023-02-18T00:58:16;12.40;1.00
296;DHT22;132;48.770;9.200;2023-02-18T01:00:43;12.20;1.00
296;DHT22;132;48.770;9.200;2023-02-18T01:03:11;12.20;1.00
296;DHT22;132;48.770;9.200;2023-02-18T01:05:41;12.20;1.00
296;DHT22;132;48.770;9.200;2023-02-18T01:08:08;12.20;1.00
296;DHT22;132;48.770;9.200;2023-02-18T01:10:40;12.40;1.00
296;DHT22;132;48.770;9.200;2023-02-18T01:13:06;12.20;1.00
296;DHT22;132;48.770;9.200;2023-02-18T01:15:33;12.40;1.00
296;DHT22;132;48.770;9.200;2023-02-18T01:17:59;12.30;1.00
296;DHT22;132;48.770;9.200;2023-02-18T01:20:26;12.40;1.00
296;DHT22;132;48.770;9.200;2023-02-18T01:22:52;12.00;1.00
296;DHT22;132;48.770;9.200;2023-02-18T01:25:19;12.10;1.00
296;DHT22;132;48.770;9.200;2023-02-18T01:27:45;12.30;1.00
296;DHT22;132;48.770;9.200;2023-02-18T01:30:14;12.40;1.00
296;DHT22;132;48.770;9.200;2023-02-18T01:32:41;12.10;1.00
296;DHT22;132;48.770;9.200;2023-02-18T01:35:12;12.20;1.00
296;DHT22;132;48.770;9.200;2023-02-18T01:37:39;12.10;1.00
296;DHT22;132;48.770;9.200;2023-02-18T01:40:07;12.10;1.00
296;DHT22;132;48.770;9.200;2023-02-18T01:42:34;12.10;1.00
296;DHT22;132;48.770;9.200;2023-02-18T01:50:44;12.00;1.00
296;DHT22;132;48.770;9.200;2023-02-18T01:53:14;12.10;1.00
296;DHT22;132;48.770;9.200;2023-02-18T01:55:42;12.00;1.00
296;DHT22;132;48.770;9.200;2023-02-18T01:58:08;11.90;1.00
296;DHT22;132;48.770;9.200;2023-02-18T02:00:36;11.90;1.00
296;DHT22;132;48.770;9.200;2023-02-18T02:03:02;11.90;1.00
296;DHT22;132;48.770;9.200;2023-02-18T02:05:31;11.90;1.00
296;DHT22;132;48.770;9.200;2023-02-18T02:07:59;12.00;1.00
296;DHT22;132;48.770;9.200;2023-02-18T02:16:10;11.80;1.00
296;DHT22;132;48.770;9.200;2023-02-18T02:21:57;12.00;1.00
296;DHT22;132;48.770;9.200;2023-02-18T02:27:25;12.00;1.00
296;DHT22;132;48.770;9.200;2023-02-18T02:38:14;11.90;1.00
296;DHT22;132;48.770;9.200;2023-02-18T02:53:42;12.00;1.00
296;DHT22;132;48.770;9.200;2023-02-18T02:56:21;12.00;1.00
296;DHT22;132;48.770;9.200;2023-02-18T02:59:00;12.00;1.00
296;DHT22;132;48.770;9.200;2023-02-18T03:09:41;12.00;1.00
296;DHT22;132;48.770;9.200;2023-02-18T03:18:20;12.00;1.00
296;DHT22;132;48.770;9.200;2023-02-18T03:20:54;12.00;1.00
296;DHT22;132;48.770;9.200;2023-02-18T03:23:28;12.00;1.00
296;DHT22;132;48.770;9.200;2023-02-18T03:25:58;12.00;1.00
296;DHT22;132;48.770;9.200;2023-02-18T03:28:28;12.00;1.00
296;DHT22;132;48.770;9.200;2023-02-18T03:31:09;11.90;1.00
296;DHT22;132;48.770;9.200;2023-02-18T03:33:54;12.00;1.00
296;DHT22;132;48.770;9.200;2023-02-18T03:36:22;11.90;1.00
296;DHT22;132;48.770;9.200;2023-02-18T03:39:04;12.10;1.00
296;DHT22;132;48.770;9.200;2023-02-18T03:41:32;11.80;1.00
296;DHT22;132;48.770;9.200;2023-02-18T03:44:05;11.70;1.00
296;DHT22;132;48.770;9.200;2023-02-18T03:46:32;11.70;1.00
296;DHT22;132;48.770;9.200;2023-02-18T03:48:59;11.60;1.00
296;DHT22;132;48.770;9.200;2023-02-18T03:51:26;12.00;1.00
296;DHT22;132;48.770;9.200;2023-02-18T03:53:52;11.60;1.00
296;DHT22;132;48.770;9.200;2023-02-18T03:56:19;11.70;1.00
296;DHT22;132;48.770;9.200;2023-02-18T03:58:46;11.50;1.00
296;DHT22;132;48.770;9.200;2023-02-18T04:01:12;11.40;1.00
296;DHT22;132;48.770;9.200;2023-02-18T04:03:39;11.30;1.00
296;DHT22;132;48.770;9.200;2023-02-18T04:06:06;11.30;1.00
296;DHT22;132;48.770;9.200;2023-02-18T04:08:32;11.30;1.00
296;DHT22;132;48.770;9.200;2023-02-18T04:10:59;11.80;1.00
296;DHT22;132;48.770;9.200;2023-02-18T04:13:26;11.40;1.00
296;DHT22;132;48.770;9.200;2023-02-18T04:15:53;11.60;1.00
296;DHT22;132;48.770;9.200;2023-02-18T04:18:19;11.90;1.00
296;DHT22;132;48.770;9.200;2023-02-18T04:20:47;11.40;1.00
296;DHT22;132;48.770;9.200;2023-02-18T04:23:14;11.50;1.00
296;DHT22;132;48.770;9.200;2023-02-18T04:25:40;11.50;1.00
296;DHT22;132;48.770;9.200;2023-02-18T04:28:07;11.70;1.00
296;DHT22;132;48.770;9.200;2023-02-18T04:30:36;11.50;1.00
296;DHT22;132;48.770;9.200;2023-02-18T04:33:03;11.50;1.00
296;DHT22;132;48.770;9.200;2023-02-18T04:35:29;11.30;1.00
296;DHT22;132;48.770;9.200;2023-02-18T04:37:55;12.00;1.00
296;DHT22;132;48.770;9.200;2023-02-18T04:40:22;11.50;1.00
296;DHT22;132;48.770;9.200;2023-02-18T04:42:50;11.30;1.00
296;DHT22;132;48.770;9.200;2023-02-18T04:45:16;11.70;1.00
296;DHT22;132;48.770;9.200;2023-02-18T04:47:43;11.30;1.00
296;DHT22;132;48.770;9.200;2023-02-18T04:50:10;11.30;1.00
296;DHT22;132;48.770;9.200;2023-02-18T04:52:36;11.20;1.00
296;DHT22;132;48.770;9.200;2023-02-18T04:55:03;11.20;1.00
296;DHT22;132;48.770;9.200;2023-02-18T04:57:30;11.20;1.00
296;DHT22;132;48.770;9.200;2023-02-18T04:59:56;11.20;1.00
296;DHT22;132;48.770;9.200;2023-02-18T05:02:22;11.10;1.00
296;DHT22;132;48.770;9.200;2023-02-18T05:04:49;11.20;1.00
296;DHT22;132;48.770;9.200;2023-02-18T05:07:15;11.10;1.00
296;DHT22;132;48.770;9.200;2023-02-18T05:09:41;11.10;1.00
296;DHT22;132;48.770;9.200;2023-02-18T05:12:08;11.10;1.00
296;DHT22;132;48.770;9.200;2023-02-18T05:14:34;11.10;1.00
296;DHT22;132;48.770;9.200;2023-02-18T05:17:01;11.10;1.00
296;DHT22;132;48.770;9.200;2023-02-18T05:19:27;11.30;1.00
296;DHT22;132;48.770;9.200;2023-02-18T05:21:54;11.00;1.00
296;DHT22;132;48.770;9.200;2023-02-18T05:24:20;11.20;1.00
296;DHT22;132;48.770;9.200;2023-02-18T05:26:46;11.40;1.00
296;DHT22;132;48.770;9.200;2023-02-18T05:29:13;10.90;1.00
296;DHT22;132;48.770;9.200;2023-02-18T05:31:39;11.00;1.00
296;DHT22;132;48.770;9.200;2023-02-18T05:34:05;11.50;1.00
296;DHT22;132;48.770;9.200;2023-02-18T05:36:32;10.90;1.00
296;DHT22;132;48.770;9.200;2023-02-18T05:38:58;11.10;1.00
296;DHT22;132;48.770;9.200;2023-02-18T05:41:24;11.10;1.00
296;DHT22;132;48.770;9.200;2023-02-18T05:43:51;11.10;1.00
296;DHT22;132;48.770;9.200;2023-02-18T05:46:36;10.60;1.00
296;DHT22;132;48.770;9.200;2023-02-18T05:49:02;11.00;1.00
296;DHT22;132;48.770;9.200;2023-02-18T05:51:29;10.70;1.00
296;DHT22;132;48.770;9.200;2023-02-18T05:53:55;10.80;1.00
296;DHT22;132;48.770;9.200;2023-02-18T05:56:22;10.80;1.00
296;DHT22;132;48.770;9.200;2023-02-18T05:58:48;10.90;1.00
296;DHT22;132;48.770;9.200;2023-02-18T06:01:14;11.50;1.00
296;DHT22;132;48.770;9.200;2023-02-18T06:03:41;10.90;1.00
296;DHT22;132;48.770;9.200;2023-02-18T06:06:07;10.90;1.00
296;DHT22;132;48.770;9.200;2023-02-18T06:08:34;11.10;1.00
296;DHT22;132;48.770;9.200;2023-02-18T06:11:00;11.00;1.00
296;DHT22;132;48.770;9.200;2023-02-18T06:13:27;11.00;1.00
296;DHT22;132;48.770;9.200;2023-02-18T06:15:53;11.30;1.00
296;DHT22;132;48.770;9.200;2023-02-18T06:18:20;11.10;1.00
296;DHT22;132;48.770;9.200;2023-02-18T06:20:48;11.00;1.00
296;DHT22;132;48.770;9.200;2023-02-18T06:23:14;10.80;1.00
296;DHT22;132;48.770;9.200;2023-02-18T06:25:41;11.10;1.00
296;DHT22;132;48.770;9.200;2023-02-18T06:28:08;11.10;1.00
296;DHT22;132;48.770;9.200;2023-02-18T06:30:34;11.00;1.00
296;DHT22;132;48.770;9.200;2023-02-18T06:33:01;11.00;1.00
296;DHT22;132;48.770;9.200;2023-02-18T06:35:29;11.00;1.00
296;DHT22;132;48.770;9.200;2023-02-18T06:37:56;11.00;1.00
296;DHT22;132;48.770;9.200;2023-02-18T06:40:22;11.20;1.00
296;DHT22;132;48.770;9.200;2023-02-18T06:42:49;11.10;1.00
296;DHT22;132;48.770;9.200;2023-02-18T06:45:16;11.20;1.00
296;DHT22;132;48.770;9.200;2023-02-18T06:47:43;11.20;1.00
296;DHT22;132;48.770;9.200;2023-02-18T06:50:09;11.20;1.00
296;DHT22;132;48.770;9.200;2023-02-18T06:52:36;11.30;1.00
296;DHT22;132;48.770;9.200;2023-02-18T06:55:04;12.50;1.00
296;DHT22;132;48.770;9.200;2023-02-18T06:57:31;11.40;1.00
296;DHT22;132;48.770;9.200;2023-02-18T06:59:57;11.50;1.00
296;DHT22;132;48.770;9.200;2023-02-18T07:02:24;11.40;1.00
296;DHT22;132;48.770;9.200;2023-02-18T07:04:50;11.60;1.00
296;DHT22;132;48.770;9.200;2023-02-18T07:07:17;11.50;1.00
296;DHT22;132;48.770;9.200;2023-02-18T07:09:43;11.50;1.00
296;DHT22;132;48.770;9.200;2023-02-18T07:12:09;11.60;1.00
296;DHT22;132;48.770;9.200;2023-02-18T07:14:36;11.60;1.00
296;DHT22;132;48.770;9.200;2023-02-18T07:17:02;11.60;1.00
296;DHT22;132;48.770;9.200;2023-02-18T07:19:29;11.70;1.00
296;DHT22;132;48.770;9.200;2023-02-18T07:21:55;11.60;1.00
296;DHT22;132;48.770;9.200;2023-02-18T07:24:23;11.70;1.00
296;DHT22;132;48.770;9.200;2023-02-18T07:26:49;12.10;1.00
296;DHT22;132;48.770;9.200;2023-02-18T07:29:16;11.80;1.00
296;DHT22;132;48.770;9.200;2023-02-18T07:31:42;12.00;1.00
296;DHT22;132;48.770;9.200;2023-02-18T07:34:08;11.90;1.00
296;DHT22;132;48.770;9.200;2023-02-18T07:36:35;12.00;1.00
296;DHT22;132;48.770;9.200;2023-02-18T07:39:01;12.20;1.00
296;DHT22;132;48.770;9.200;2023-02-18T07:41:28;11.90;1.00
296;DHT22;132;48.770;9.200;2023-02-18T07:43:54;11.80;1.00
296;DHT22;132;48.770;9.200;2023-02-18T07:46:21;12.00;1.00
296;DHT22;132;48.770;9.200;2023-02-18T07:48:47;12.00;1.00
296;DHT22;132;48.770;9.200;2023-02-18T07:51:14;12.10;1.00
296;DHT22;132;48.770;9.200;2023-02-18T07:53:40;12.10;1.00
296;DHT22;132;48.770;9.200;2023-02-18T07:56:07;12.60;1.00
296;DHT22;132;48.770;9.200;2023-02-18T07:58:36;12.60;1.00
296;DHT22;132;48.770;9.200;2023-02-18T08:01:07;12.30;1.00
296;DHT22;132;48.770;9.200;2023-02-18T08:03:34;12.40;1.00
296;DHT22;132;48.770;9.200;2023-02-18T08:06:01;12.60;1.00
296;DHT22;132;48.770;9.200;2023-02-18T08:08:29;12.50;1.00
296;DHT22;132;48.770;9.200;2023-02-18T08:10:58;12.40;1.00
296;DHT22;132;48.770;9.200;2023-02-18T08:13:27;12.30;1.00
296;DHT22;132;48.770;9.200;2023-02-18T08:15:55;12.60;1.00
296;DHT22;132;48.770;9.200;2023-02-18T08:18:23;12.50;1.00
296;DHT22;132;48.770;9.200;2023-02-18T08:20:50;12.90;1.00
296;DHT22;132;48.770;9.200;2023-02-18T08:23:22;12.50;1.00
296;DHT22;132;48.770;9.200;2023-02-18T08:25:49;12.50;1.00
296;DHT22;132;48.770;9.200;2023-02-18T08:28:24;12.60;1.00
296;DHT22;132;48.770;9.200;2023-02-18T08:30:52;12.70;1.00
296;DHT22;132;48.770;9.200;2023-02-18T08:33:19;12.80;1.00
296;DHT22;132;48.770;9.200;2023-02-18T08:35:48;12.80;1.00
296;DHT22;132;48.770;9.200;2023-02-18T08:38:15;12.80;1.00
296;DHT22;132;48.770;9.200;2023-02-18T08:40:41;12.90;1.00
296;DHT22;132;48.770;9.200;2023-02-18T08:43:08;12.90;1.00
296;DHT22;132;48.770;9.200;2023-02-18T08:45:36;13.10;1.00
296;DHT22;132;48.770;9.200;2023-02-18T08:48:07;13.00;1.00
296;DHT22;132;48.770;9.200;2023-02-18T08:50:34;13.00;1.00
296;DHT22;132;48.770;9.200;2023-02-18T08:53:00;13.20;1.00
296;DHT22;132;48.770;9.200;2023-02-18T08:55:29;12.00;1.00
296;DHT22;132;48.770;9.200;2023-02-18T08:57:56;13.10;1.00
296;DHT22;132;48.770;9.200;2023-02-18T09:00:22;13.20;1.00
296;DHT22;132;48.770;9.200;2023-02-18T09:02:49;13.20;1.00
296;DHT22;132;48.770;9.200;2023-02-18T09:05:16;13.40;1.00
296;DHT22;132;48.770;9.200;2023-02-18T09:07:42;13.30;1.00
296;DHT22;132;48.770;9.200;2023-02-18T09:10:09;13.40;1.00
296;DHT22;132;48.770;9.200;2023-02-18T09:12:36;13.40;1.00
296;DHT22;132;48.770;9.200;2023-02-18T09:15:03;13.40;1.00
296;DHT22;132;48.770;9.200;2023-02-18T09:17:30;13.50;1.00
296;DHT22;132;48.770;9.200;2023-02-18T09:19:56;13.50;1.00
296;DHT22;132;48.770;9.200;2023-02-18T09:22:22;13.50;1.00
296;DHT22;132;48.770;9.200;2023-02-18T09:24:49;13.60;1.00
296;DHT22;132;48.770;9.200;2023-02-18T09:27:16;13.60;1.00
296;DHT22;132;48.770;9.200;2023-02-18T09:29:42;13.60;1.00
296;DHT22;132;48.770;9.200;2023-02-18T09:32:09;13.80;1.00
296;DHT22;132;48.770;9.200;2023-02-18T09:34:37;13.80;1.00
296;DHT22;132;48.770;9.200;2023-02-18T09:37:04;13.80;1.00
296;DHT22;132;48.770;9.200;2023-02-18T09:39:30;14.00;1.00
296;DHT22;132;48.770;9.200;2023-02-18T09:41:58;13.70;1.00
296;DHT22;132;48.770;9.200;2023-02-18T09:44:41;13.80;1.00
296;DHT22;132;48.770;9.200;2023-02-18T09:47:14;13.80;1.00
296;DHT22;132;48.770;9.200;2023-02-18T09:49:55;13.80;1.00
296;DHT22;132;48.770;9.200;2023-02-18T09:52:32;13.90;1.00
296;DHT22;132;48.770;9.200;2023-02-18T09:55:02;13.90;1.00
296;DHT22;132;48.770;9.200;2023-02-18T09:57:52;13.90;1.00
296;DHT22;132;48.770;9.200;2023-02-18T10:03:16;13.90;1.00
296;DHT22;132;48.770;9.200;2023-02-18T10:06:03;13.90;1.00
296;DHT22;132;48.770;9.200;2023-02-18T10:08:33;13.90;1.00
296;DHT22;132;48.770;9.200;2023-02-18T10:11:01;13.90;1.00
296;DHT22;132;48.770;9.200;2023-02-18T10:13:32;13.90;1.00
296;DHT22;132;48.770;9.200;2023-02-18T10:16:00;14.10;1.00
296;DHT22;132;48.770;9.200;2023-02-18T10:18:34;13.90;1.00
296;DHT22;132;48.770;9.200;2023-02-18T10:21:08;13.80;1.00
296;DHT22;132;48.770;9.200;2023-02-18T10:23:39;13.90;1.00
296;DHT22;132;48.770;9.200;2023-02-18T10:26:11;14.10;1.00
296;DHT22;132;48.770;9.200;2023-02-18T10:28:39;14.00;1.00
296;DHT22;132;48.770;9.200;2023-02-18T10:31:12;14.10;1.00
296;DHT22;132;48.770;9.200;2023-02-18T10:33:50;14.10;1.00
296;DHT22;132;48.770;9.200;2023-02-18T10:36:44;14.10;1.00
296;DHT22;132;48.770;9.200;2023-02-18T10:39:31;14.20;1.00
296;DHT22;132;48.770;9.200;2023-02-18T10:49:59;14.20;1.00
296;DHT22;132;48.770;9.200;2023-02-18T10:52:29;14.30;1.00
296;DHT22;132;48.770;9.200;2023-02-18T10:55:07;14.30;1.00
296;DHT22;132;48.770;9.200;2023-02-18T10:57:35;14.30;1.00
296;DHT22;132;48.770;9.200;2023-02-18T11:02:43;14.50;1.00
296;DHT22;132;48.770;9.200;2023-02-18T11:05:24;14.40;1.00
296;DHT22;132;48.770;9.200;2023-02-18T11:07:55;14.40;1.00
296;DHT22;132;48.770;9.200;2023-02-18T11:10:28;14.60;1.00
296;DHT22;132;48.770;9.200;2023-02-18T11:12:57;14.40;1.00
296;DHT22;132;48.770;9.200;2023-02-18T11:15:27;14.40;1.00
296;DHT22;132;48.770;9.200;2023-02-18T11:18:10;14.30;1.00
296;DHT22;132;48.770;9.200;2023-02-18T11:20:38;14.40;1.00
296;DHT22;132;48.770;9.200;2023-02-18T11:25:37;14.40;1.00
296;DHT22;132;48.770;9.200;2023-02-18T11:30:39;14.50;1.00
296;DHT22;132;48.770;9.200;2023-02-18T11:35:34;14.50;1.00
296;DHT22;132;48.770;9.200;2023-02-18T11:38:03;14.50;1.00
296;DHT22;132;48.770;9.200;2023-02-18T11:40:41;14.60;1.00
296;DHT22;132;48.770;9.200;2023-02-18T11:43:13;14.60;1.00
296;DHT22;132;48.770;9.200;2023-02-18T11:45:40;14.70;1.00
296;DHT22;132;48.770;9.200;2023-02-18T11:48:17;14.70;1.00
296;DHT22;132;48.770;9.200;2023-02-18T11:50:44;14.70;1.00
296;DHT22;132;48.770;9.200;2023-02-18T11:53:34;14.70;1.00
296;DHT22;132;48.770;9.200;2023-02-18T11:56:04;14.80;1.00
296;DHT22;132;48.770;9.200;2023-02-18T11:58:37;14.90;1.00
296;DHT22;132;48.770;9.200;2023-02-18T12:01:11;15.00;1.00
296;DHT22;132;48.770;9.200;2023-02-18T12:03:50;14.90;1.00
296;DHT22;132;48.770;9.200;2023-02-18T12:06:24;14.80;1.00
296;DHT22;132;48.770;9.200;2023-02-18T12:12:13;14.90;1.00
296;DHT22;132;48.770;9.200;2023-02-18T12:14:37;14.80;1.00
296;DHT22;132;48.770;9.200;2023-02-18T12:20:31;14.90;1.00
296;DHT22;132;48.770;9.200;2023-02-18T12:26:02;15.00;1.00
296;DHT22;132;48.770;9.200;2023-02-18T12:42:15;15.10;1.00
296;DHT22;132;48.770;9.200;2023-02-18T12:45:14;15.00;1.00
296;DHT22;132;48.770;9.200;2023-02-18T12:56:23;15.20;1.00
296;DHT22;132;48.770;9.200;2023-02-18T12:59:38;15.30;1.00
296;DHT22;132;48.770;9.200;2023-02-18T13:13:34;15.10;1.00
296;DHT22;132;48.770;9.200;2023-02-18T13:16:08;15.10;1.00
296;DHT22;132;48.770;9.200;2023-02-18T13:18:42;15.00;1.00
296;DHT22;132;48.770;9.200;2023-02-18T13:21:14;14.90;1.00
296;DHT22;132;48.770;9.200;2023-02-18T13:23:54;14.80;1.00
296;DHT22;132;48.770;9.200;2023-02-18T13:26:23;14.80;1.00
296;DHT22;132;48.770;9.200;2023-02-18T13:35:03;14.60;1.00
296;DHT22;132;48.770;9.200;2023-02-18T13:40:18;14.50;1.00
296;DHT22;132;48.770;9.200;2023-02-18T13:42:50;14.50;1.00
296;DHT22;132;48.770;9.200;2023-02-18T13:45:28;14.60;1.00
296;DHT22;132;48.770;9.200;2023-02-18T13:47:55;14.60;1.00
296;DHT22;132;48.770;9.200;2023-02-18T13:50:29;14.60;1.00
296;DHT22;132;48.770;9.200;2023-02-18T13:55:56;14.70;1.00
296;DHT22;132;48.770;9.200;2023-02-18T14:01:04;14.80;1.00
296;DHT22;132;48.770;9.200;2023-02-18T14:06:29;14.90;1.00
296;DHT22;132;48.770;9.200;2023-02-18T14:12:24;14.90;1.00
296;DHT22;132;48.770;9.200;2023-02-18T14:14:51;14.80;1.00
296;DHT22;132;48.770;9.200;2023-02-18T14:22:36;14.70;1.00
296;DHT22;132;48.770;9.200;2023-02-18T14:27:37;14.60;1.00
296;DHT22;132;48.770;9.200;2023-02-18T14:30:17;14.60;1.00
296;DHT22;132;48.770;9.200;2023-02-18T14:32:44;14.70;1.00
296;DHT22;132;48.770;9.200;2023-02-18T14:47:19;14.80;1.00
296;DHT22;132;48.770;9.200;2023-02-18T14:49:37;14.70;1.00
296;DHT22;132;48.770;9.200;2023-02-18T14:54:43;14.80;1.00
296;DHT22;132;48.770;9.200;2023-02-18T14:57:16;14.80;1.00
296;DHT22;132;48.770;9.200;2023-02-18T14:59:45;15.10;1.00
296;DHT22;132;48.770;9.200;2023-02-18T15:02:19;14.80;1.00
296;DHT22;132;48.770;9.200;2023-02-18T15:04:47;14.80;1.00
296;DHT22;132;48.770;9.200;2023-02-18T15:07:13;14.80;1.00
296;DHT22;132;48.770;9.200;2023-02-18T15:09:53;14.70;1.00
296;DHT22;132;48.770;9.200;2023-02-18T15:12:21;14.70;1.00
296;DHT22;132;48.770;9.200;2023-02-18T15:14:51;14.70;1.00
296;DHT22;132;48.770;9.200;2023-02-18T15:17:24;14.80;1.00
296;DHT22;132;48.770;9.200;2023-02-18T15:19:55;14.70;1.00
296;DHT22;132;48.770;9.200;2023-02-18T15:22:24;14.70;1.00
296;DHT22;132;48.770;9.200;2023-02-18T15:24:52;14.70;1.00
296;DHT22;132;48.770;9.200;2023-02-18T15:27:28;14.70;1.00
296;DHT22;132;48.770;9.200;2023-02-18T15:30:27;14.60;1.00
296;DHT22;132;48.770;9.200;2023-02-18T15:32:57;14.50;1.00
296;DHT22;132;48.770;9.200;2023-02-18T15:35:30;14.40;1.00
296;DHT22;132;48.770;9.200;2023-02-18T15:37:59;14.40;1.00
296;DHT22;132;48.770;9.200;2023-02-18T15:40:30;14.40;1.00
296;DHT22;132;48.770;9.200;2023-02-18T15:42:59;14.30;1.00
296;DHT22;132;48.770;9.200;2023-02-18T15:45:38;14.20;1.00
296;DHT22;132;48.770;9.200;2023-02-18T15:48:21;14.30;1.00
296;DHT22;132;48.770;9.200;2023-02-18T15:50:52;14.20;1.00
296;DHT22;132;48.770;9.200;2023-02-18T15:53:19;14.10;1.00
296;DHT22;132;48.770;9.200;2023-02-18T15:55:48;14.10;1.00
296;DHT22;132;48.770;9.200;2023-02-18T15:58:30;14.10;1.00
296;DHT22;132;48.770;9.200;2023-02-18T16:01:00;14.00;1.00
296;DHT22;132;48.770;9.200;2023-02-18T16:03:44;14.00;1.00
296;DHT22;132;48.770;9.200;2023-02-18T16:08:57;13.90;1.00
296;DHT22;132;48.770;9.200;2023-02-18T16:11:25;14.10;1.00
296;DHT22;132;48.770;9.200;2023-02-18T16:13:54;13.90;1.00
296;DHT22;132;48.770;9.200;2023-02-18T16:16:28;13.80;1.00
296;DHT22;132;48.770;9.200;2023-02-18T16:18:54;13.80;1.00
296;DHT22;132;48.770;9.200;2023-02-18T16:21:37;14.50;1.00
296;DHT22;132;48.770;9.200;2023-02-18T16:24:26;13.70;1.00
296;DHT22;132;48.770;9.200;2023-02-18T16:26:57;13.70;1.00
296;DHT22;132;48.770;9.200;2023-02-18T16:29:43;13.60;1.00
296;DHT22;132;48.770;9.200;2023-02-18T16:32:09;13.50;1.00
296;DHT22;132;48.770;9.200;2023-02-18T16:34:36;13.70;1.00
296;DHT22;132;48.770;9.200;2023-02-18T16:37:02;13.50;1.00
296;DHT22;132;48.770;9.200;2023-02-18T16:39:49;13.40;1.00
296;DHT22;132;48.770;9.200;2023-02-18T16:42:17;13.40;1.00
296;DHT22;132;48.770;9.200;2023-02-18T16:44:43;12.80;1.00
296;DHT22;132;48.770;9.200;2023-02-18T16:47:14;13.30;1.00
296;DHT22;132;48.770;9.200;2023-02-18T16:49:44;13.30;1.00
296;DHT22;132;48.770;9.200;2023-02-18T16:52:12;13.20;1.00
296;DHT22;132;48.770;9.200;2023-02-18T16:54:40;13.20;1.00
296;DHT22;132;48.770;9.200;2023-02-18T16:57:07;13.30;1.00
296;DHT22;132;48.770;9.200;2023-02-18T16:59:34;13.20;1.00
296;DHT22;132;48.770;9.200;2023-02-18T17:02:00;13.20;1.00
296;DHT22;132;48.770;9.200;2023-02-18T17:04:27;13.20;1.00
296;DHT22;132;48.770;9.200;2023-02-18T17:06:53;12.00;1.00
296;DHT22;132;48.770;9.200;2023-02-18T17:09:22;13.90;1.00
296;DHT22;132;48.770;9.200;2023-02-18T17:11:50;13.20;1.00
296;DHT22;132;48.770;9.200;2023-02-18T17:14:18;13.20;1.00
296;DHT22;132;48.770;9.200;2023-02-18T17:16:46;13.20;1.00
296;DHT22;132;48.770;9.200;2023-02-18T17:19:13;13.50;1.00
296;DHT22;132;48.770;9.200;2023-02-18T17:21:39;13.20;1.00
296;DHT22;132;48.770;9.200;2023-02-18T17:24:09;13.20;1.00
296;DHT22;132;48.770;9.200;2023-02-18T17:26:37;13.20;1.00
296;DHT22;132;48.770;9.200;2023-02-18T17:29:03;13.20;1.00
296;DHT22;132;48.770;9.200;2023-02-18T17:31:34;13.30;1.00
296;DHT22;132;48.770;9.200;2023-02-18T17:34:05;13.20;1.00
296;DHT22;132;48.770;9.200;2023-02-18T17:36:32;13.20;1.00
296;DHT22;132;48.770;9.200;2023-02-18T17:38:58;13.20;1.00
296;DHT22;132;48.770;9.200;2023-02-18T17:41:25;13.20;1.00
296;DHT22;132;48.770;9.200;2023-02-18T17:43:52;13.20;1.00
296;DHT22;132;48.770;9.200;2023-02-18T17:46:18;13.30;1.00
296;DHT22;132;48.770;9.200;2023-02-18T17:48:45;13.20;1.00
296;DHT22;132;48.770;9.200;2023-02-18T17:51:24;13.10;1.00
296;DHT22;132;48.770;9.200;2023-02-18T17:53:51;13.10;1.00
296;DHT22;132;48.770;9.200;2023-02-18T17:56:17;13.10;1.00
296;DHT22;132;48.770;9.200;2023-02-18T17:58:44;13.00;1.00
296;DHT22;132;48.770;9.200;2023-02-18T18:01:11;12.90;1.00
296;DHT22;132;48.770;9.200;2023-02-18T18:03:38;12.80;1.00
296;DHT22;132;48.770;9.200;2023-02-18T18:06:09;12.90;1.00
296;DHT22;132;48.770;9.200;2023-02-18T18:08:39;12.90;1.00
296;DHT22;132;48.770;9.200;2023-02-18T18:11:13;12.90;1.00
296;DHT22;132;48.770;9.200;2023-02-18T18:13:40;13.10;1.00
296;DHT22;132;48.770;9.200;2023-02-18T18:16:12;12.90;1.00
296;DHT22;132;48.770;9.200;2023-02-18T18:18:38;12.90;1.00
296;DHT22;132;48.770;9.200;2023-02-18T18:21:08;12.90;1.00
296;DHT22;132;48.770;9.200;2023-02-18T18:23:39;13.00;1.00
296;DHT22;132;48.770;9.200;2023-02-18T18:26:05;13.00;1.00
296;DHT22;132;48.770;9.200;2023-02-18T18:28:32;12.90;1.00
296;DHT22;132;48.770;9.200;2023-02-18T18:30:58;12.90;1.00
296;DHT22;132;48.770;9.200;2023-02-18T18:33:30;12.90;1.00
296;DHT22;132;48.770;9.200;2023-02-18T18:35:57;12.90;1.00
296;DHT22;132;48.770;9.200;2023-02-18T18:38:25;13.00;1.00
296;DHT22;132;48.770;9.200;2023-02-18T18:40:53;12.90;1.00
296;DHT22;132;48.770;9.200;2023-02-18T18:43:22;13.10;1.00
296;DHT22;132;48.770;9.200;2023-02-18T18:45:49;12.90;1.00
296;DHT22;132;48.770;9.200;2023-02-18T18:48:17;12.90;1.00
296;DHT22;132;48.770;9.200;2023-02-18T18:50:45;12.80;1.00
296;DHT22;132;48.770;9.200;2023-02-18T18:53:18;12.80;1.00
296;DHT22;132;48.770;9.200;2023-02-18T18:55:45;12.80;1.00
296;DHT22;132;48.770;9.200;2023-02-18T18:58:11;12.80;1.00
296;DHT22;132;48.770;9.200;2023-02-18T19:00:40;13.00;1.00
296;DHT22;132;48.770;9.200;2023-02-18T19:03:10;12.70;1.00
296;DHT22;132;48.770;9.200;2023-02-18T19:05:41;12.70;1.00
296;DHT22;132;48.770;9.200;2023-02-18T19:08:09;12.70;1.00
296;DHT22;132;48.770;9.200;2023-02-18T19:10:39;12.90;1.00
296;DHT22;132;48.770;9.200;2023-02-18T19:13:10;12.70;1.00
296;DHT22;132;48.770;9.200;2023-02-18T19:15:37;12.70;1.00
296;DHT22;132;48.770;9.200;2023-02-18T19:18:04;12.60;1.00
296;DHT22;132;48.770;9.200;2023-02-18T19:20:33;12.70;1.00
296;DHT22;132;48.770;9.200;2023-02-18T19:23:01;12.70;1.00
296;DHT22;132;48.770;9.200;2023-02-18T19:25:28;12.80;1.00
296;DHT22;132;48.770;9.200;2023-02-18T19:27:55;12.70;1.00
296;DHT22;132;48.770;9.200;2023-02-18T19:30:27;12.70;1.00
296;DHT22;132;48.770;9.200;2023-02-18T19:32:56;12.70;1.00
296;DHT22;132;48.770;9.200;2023-02-18T19:35:23;12.50;1.00
296;DHT22;132;48.770;9.200;2023-02-18T19:37:50;12.60;1.00
296;DHT22;132;48.770;9.200;2023-02-18T19:40:19;12.90;1.00
296;DHT22;132;48.770;9.200;2023-02-18T19:42:46;12.60;1.00
296;DHT22;132;48.770;9.200;2023-02-18T19:45:13;12.70;1.00
296;DHT22;132;48.770;9.200;2023-02-18T19:47:40;12.80;1.00
296;DHT22;132;48.770;9.200;2023-02-18T19:50:08;12.70;1.00